createdAt,value
2018-01-06T00:00:56.730Z,0
2018-01-06T00:01:57.000Z,0
2018-01-06T00:02:56.966Z,0
2018-01-06T00:03:56.968Z,0
2018-01-06T00:04:56.713Z,0
2018-01-06T00:05:56.702Z,0
2018-01-06T00:06:56.457Z,0
2018-01-06T00:07:56.439Z,0
2018-01-06T00:08:56.715Z,0
2018-01-06T00:09:56.947Z,0
2018-01-06T00:10:56.922Z,0
2018-01-06T00:11:57.190Z,0
2018-01-06T00:12:56.910Z,0
2018-01-06T00:13:56.903Z,0
2018-01-06T00:14:56.652Z,0
2018-01-06T00:15:56.654Z,0
2018-01-06T00:16:56.380Z,0
2018-01-06T00:17:56.913Z,0
2018-01-06T00:18:56.640Z,0
2018-01-06T00:19:56.907Z,0
2018-01-06T00:20:56.895Z,0
2018-01-06T00:21:56.636Z,0
2018-01-06T00:22:56.902Z,0
2018-01-06T00:23:56.640Z,0
2018-01-06T00:24:56.857Z,0
2018-01-06T00:25:56.615Z,0
2018-01-06T00:26:57.115Z,0
2018-01-06T00:27:56.609Z,0
2018-01-06T00:28:57.106Z,0
2018-01-06T00:29:57.088Z,0
2018-01-06T00:30:57.088Z,0
2018-01-06T00:31:56.579Z,0
2018-01-06T00:32:56.824Z,0
2018-01-06T00:33:56.547Z,0
2018-01-06T00:34:56.551Z,0
2018-01-06T00:35:56.798Z,0
2018-01-06T00:36:56.773Z,0
2018-01-06T00:37:56.306Z,0
2018-01-06T00:38:56.806Z,0
2018-01-06T00:39:56.261Z,0
2018-01-06T00:40:56.781Z,0
2018-01-06T00:41:56.790Z,0
2018-01-06T00:42:56.503Z,0
2018-01-06T00:43:56.735Z,0
2018-01-06T00:44:56.715Z,0
2018-01-06T00:45:56.493Z,0
2018-01-06T00:46:56.988Z,0
2018-01-06T00:47:56.727Z,0
2018-01-06T00:48:56.466Z,0
2018-01-06T00:49:56.720Z,0
2018-01-06T00:50:56.669Z,0
2018-01-06T00:51:56.973Z,0
2018-01-06T00:52:56.956Z,0
2018-01-06T00:53:56.194Z,0
2018-01-06T00:54:56.930Z,0
2018-01-06T00:55:56.419Z,0
2018-01-06T00:56:56.659Z,0
2018-01-06T00:57:56.394Z,0
2018-01-06T00:58:56.645Z,0
2018-01-06T00:59:56.669Z,0
2018-01-06T01:00:56.400Z,0
2018-01-06T01:01:56.130Z,0
2018-01-06T01:02:56.911Z,0
2018-01-06T01:03:56.369Z,0
2018-01-06T01:04:56.625Z,0
2018-01-06T01:05:56.601Z,0
2018-01-06T01:06:56.625Z,0
2018-01-06T01:07:56.339Z,0
2018-01-06T01:08:56.630Z,0
2018-01-06T01:09:56.844Z,0
2018-01-06T01:10:56.843Z,0
2018-01-06T01:11:56.318Z,0
2018-01-06T01:12:56.815Z,0
2018-01-06T01:13:56.578Z,0
2018-01-06T01:14:56.566Z,0
2018-01-06T01:15:56.299Z,0
2018-01-06T01:16:56.555Z,0
2018-01-06T01:17:56.301Z,0
2018-01-06T01:18:56.546Z,0
2018-01-06T01:19:56.288Z,0
2018-01-06T01:20:56.284Z,0
2018-01-06T01:21:56.281Z,0
2018-01-06T01:22:56.798Z,0
2018-01-06T01:23:56.260Z,0
2018-01-06T01:24:57.559Z,0
2018-01-06T01:25:56.760Z,0
2018-01-06T01:26:56.502Z,0
2018-01-06T01:27:56.255Z,0
2018-01-06T01:28:56.749Z,0
2018-01-06T01:29:56.497Z,0
2018-01-06T01:30:56.749Z,0
2018-01-06T01:31:56.232Z,0
2018-01-06T01:32:56.227Z,0
2018-01-06T01:33:56.728Z,0
2018-01-06T01:34:56.251Z,0
2018-01-06T01:35:56.710Z,0
2018-01-06T01:36:56.507Z,0
2018-01-06T01:37:56.705Z,0
2018-01-06T01:38:56.204Z,0
2018-01-06T01:39:56.196Z,0
2018-01-06T01:40:56.685Z,0
2018-01-06T01:41:56.204Z,0
2018-01-06T01:42:56.686Z,0
2018-01-06T01:43:56.681Z,0
2018-01-06T01:44:56.534Z,0
2018-01-06T01:45:56.429Z,0
2018-01-06T01:46:56.409Z,0
2018-01-06T01:47:56.664Z,0
2018-01-06T01:48:56.408Z,0
2018-01-06T01:49:56.649Z,0
2018-01-06T01:50:56.651Z,0
2018-01-06T01:51:56.638Z,0
2018-01-06T01:52:56.395Z,0
2018-01-06T01:53:56.396Z,0
2018-01-06T01:54:55.871Z,0
2018-01-06T01:55:56.825Z,0
2018-01-06T01:56:56.116Z,0
2018-01-06T01:57:56.369Z,0
2018-01-06T01:58:56.361Z,0
2018-01-06T01:59:56.353Z,0
2018-01-06T02:00:56.607Z,0
2018-01-06T02:01:56.441Z,0
2018-01-06T02:02:56.588Z,0
2018-01-06T02:03:56.590Z,0
2018-01-06T02:04:56.339Z,0
2018-01-06T02:05:56.328Z,0
2018-01-06T02:06:56.594Z,0
2018-01-06T02:07:56.586Z,0
2018-01-06T02:08:56.302Z,0
2018-01-06T02:09:56.554Z,0
2018-01-06T02:10:56.567Z,0
2018-01-06T02:11:56.044Z,0
2018-01-06T02:12:56.285Z,0
2018-01-06T02:13:56.540Z,0
2018-01-06T02:14:56.537Z,0
2018-01-06T02:15:56.530Z,0
2018-01-06T02:16:56.278Z,0
2018-01-06T02:17:56.283Z,0
2018-01-06T02:18:56.565Z,0
2018-01-06T02:19:56.526Z,0
2018-01-06T02:20:56.259Z,0
2018-01-06T02:21:56.247Z,0
2018-01-06T02:22:56.512Z,0
2018-01-06T02:23:56.498Z,0
2018-01-06T02:24:56.022Z,0
2018-01-06T02:25:56.486Z,0
2018-01-06T02:26:56.474Z,0
2018-01-06T02:27:56.227Z,0
2018-01-06T02:28:56.480Z,0
2018-01-06T02:29:56.478Z,0
2018-01-06T02:30:56.488Z,0
2018-01-06T02:31:55.952Z,0
2018-01-06T02:32:56.224Z,0
2018-01-06T02:33:55.952Z,0
2018-01-06T02:34:56.211Z,0
2018-01-06T02:35:56.455Z,0
2018-01-06T02:36:56.433Z,0
2018-01-06T02:37:56.228Z,0
2018-01-06T02:38:56.428Z,0
2018-01-06T02:39:56.420Z,0
2018-01-06T02:40:56.438Z,0
2018-01-06T02:41:56.422Z,0
2018-01-06T02:42:55.899Z,0
2018-01-06T02:43:56.428Z,0
2018-01-06T02:44:56.407Z,0
2018-01-06T02:45:56.144Z,0
2018-01-06T02:46:56.406Z,0
2018-01-06T02:47:56.397Z,0
2018-01-06T02:48:56.401Z,0
2018-01-06T02:49:56.133Z,0
2018-01-06T02:50:56.145Z,0
2018-01-06T02:51:56.118Z,0
2018-01-06T02:52:55.864Z,0
2018-01-06T02:53:56.361Z,0
2018-01-06T02:54:56.365Z,0
2018-01-06T02:55:56.101Z,0
2018-01-06T02:56:55.843Z,0
2018-01-06T02:57:55.838Z,0
2018-01-06T02:58:55.835Z,0
2018-01-06T02:59:55.825Z,0
2018-01-06T03:00:56.068Z,0
2018-01-06T03:01:56.084Z,0
2018-01-06T03:02:56.075Z,0
2018-01-06T03:03:56.317Z,0
2018-01-06T03:04:55.799Z,0
2018-01-06T03:05:55.807Z,0
2018-01-06T03:06:56.053Z,0
2018-01-06T03:07:55.785Z,0
2018-01-06T03:08:55.548Z,0
2018-01-06T03:09:55.803Z,0
2018-01-06T03:10:56.031Z,0
2018-01-06T03:11:56.034Z,0
2018-01-06T03:12:56.030Z,0
2018-01-06T03:13:56.263Z,0
2018-01-06T03:14:56.268Z,0
2018-01-06T03:15:55.752Z,0
2018-01-06T03:16:55.747Z,0
2018-01-06T03:17:55.744Z,0
2018-01-06T03:18:55.746Z,0
2018-01-06T03:19:55.740Z,0
2018-01-06T03:20:55.726Z,0
2018-01-06T03:21:56.236Z,0
2018-01-06T03:22:55.976Z,0
2018-01-06T03:23:55.973Z,0
2018-01-06T03:24:55.960Z,0
2018-01-06T03:25:55.706Z,0
2018-01-06T03:26:56.202Z,0
2018-01-06T03:27:55.693Z,0
2018-01-06T03:28:55.687Z,0
2018-01-06T03:29:56.190Z,0
2018-01-06T03:30:56.193Z,0
2018-01-06T03:31:56.181Z,0
2018-01-06T03:32:55.931Z,0
2018-01-06T03:33:55.929Z,0
2018-01-06T03:34:55.666Z,0
2018-01-06T03:35:55.945Z,0
2018-01-06T03:36:56.157Z,0
2018-01-06T03:37:56.202Z,0
2018-01-06T03:38:55.893Z,0
2018-01-06T03:39:56.144Z,0
2018-01-06T03:40:55.877Z,0
2018-01-06T03:41:55.917Z,0
2018-01-06T03:42:56.202Z,0
2018-01-06T03:43:56.125Z,0
2018-01-06T03:44:56.190Z,0
2018-01-06T03:45:55.863Z,0
2018-01-06T03:46:56.107Z,0
2018-01-06T03:47:55.605Z,0
2018-01-06T03:48:56.103Z,0
2018-01-06T03:49:56.099Z,0
2018-01-06T03:50:55.841Z,0
2018-01-06T03:51:55.861Z,0
2018-01-06T03:52:55.580Z,0
2018-01-06T03:53:56.077Z,0
2018-01-06T03:54:55.812Z,0
2018-01-06T03:55:58.324Z,0
2018-01-06T03:56:55.809Z,0
2018-01-06T03:57:56.058Z,0
2018-01-06T03:58:56.056Z,0
2018-01-06T03:59:55.535Z,0
2018-01-06T04:00:56.045Z,0
2018-01-06T04:01:56.040Z,0
2018-01-06T04:02:55.524Z,0
2018-01-06T04:03:55.789Z,0
2018-01-06T04:04:55.763Z,0
2018-01-06T04:05:56.011Z,0
2018-01-06T04:06:56.010Z,0
2018-01-06T04:07:55.756Z,0
2018-01-06T04:08:56.012Z,0
2018-01-06T04:09:55.738Z,0
2018-01-06T04:10:55.990Z,0
2018-01-06T04:11:55.733Z,0
2018-01-06T04:12:55.990Z,0
2018-01-06T04:13:55.221Z,0
2018-01-06T04:14:55.469Z,0
2018-01-06T04:15:55.701Z,0
2018-01-06T04:16:55.949Z,0
2018-01-06T04:17:55.969Z,0
2018-01-06T04:18:55.945Z,0
2018-01-06T04:19:55.945Z,0
2018-01-06T04:20:55.990Z,0
2018-01-06T04:21:55.927Z,0
2018-01-06T04:22:55.930Z,0
2018-01-06T04:23:55.669Z,0
2018-01-06T04:24:55.415Z,0
2018-01-06T04:25:55.655Z,0
2018-01-06T04:26:55.902Z,0
2018-01-06T04:27:55.653Z,0
2018-01-06T04:28:55.650Z,0
2018-01-06T04:29:55.899Z,0
2018-01-06T04:30:55.632Z,0
2018-01-06T04:31:55.622Z,0
2018-01-06T04:32:55.868Z,0
2018-01-06T04:33:55.611Z,0
2018-01-06T04:34:55.875Z,0
2018-01-06T04:35:55.606Z,0
2018-01-06T04:36:55.594Z,0
2018-01-06T04:37:55.348Z,0
2018-01-06T04:38:55.840Z,0
2018-01-06T04:39:55.857Z,0
2018-01-06T04:41:55.830Z,0
2018-01-06T04:42:55.571Z,0
2018-01-06T04:43:55.569Z,0
2018-01-06T04:44:55.059Z,0
2018-01-06T04:45:55.872Z,0
2018-01-06T04:46:55.833Z,0
2018-01-06T04:47:55.297Z,0
2018-01-06T04:48:55.539Z,0
2018-01-06T04:49:55.803Z,0
2018-01-06T04:50:55.793Z,0
2018-01-06T04:51:55.293Z,0
2018-01-06T04:52:55.524Z,0
2018-01-06T04:53:55.513Z,0
2018-01-06T04:54:55.767Z,0
2018-01-06T04:55:55.513Z,0
2018-01-06T04:56:55.249Z,0
2018-01-06T04:57:55.501Z,0
2018-01-06T04:58:55.737Z,0
2018-01-06T04:59:55.491Z,0
2018-01-06T05:00:55.225Z,0
2018-01-06T05:01:56.543Z,0
2018-01-06T05:02:55.482Z,0
2018-01-06T05:03:55.475Z,0
2018-01-06T05:04:55.466Z,0
2018-01-06T05:05:55.216Z,0
2018-01-06T05:06:55.479Z,0
2018-01-06T05:07:55.728Z,0
2018-01-06T05:08:55.705Z,0
2018-01-06T05:09:55.699Z,0
2018-01-06T05:10:55.696Z,0
2018-01-06T05:11:55.422Z,0
2018-01-06T05:12:55.419Z,0
2018-01-06T05:13:55.178Z,0
2018-01-06T05:14:55.414Z,0
2018-01-06T05:15:55.402Z,0
2018-01-06T05:16:55.420Z,0
2018-01-06T05:17:55.638Z,0
2018-01-06T05:18:55.402Z,0
2018-01-06T05:19:55.391Z,0
2018-01-06T05:20:55.633Z,0
2018-01-06T05:21:55.635Z,0
2018-01-06T05:22:55.619Z,0
2018-01-06T05:23:55.137Z,0
2018-01-06T05:24:55.611Z,0
2018-01-06T05:25:55.357Z,0
2018-01-06T05:26:55.608Z,0
2018-01-06T05:27:55.121Z,0
2018-01-06T05:28:55.348Z,0
2018-01-06T05:29:55.612Z,0
2018-01-06T05:30:55.324Z,0
2018-01-06T05:31:55.319Z,0
2018-01-06T05:32:55.621Z,0
2018-01-06T05:33:55.318Z,0
2018-01-06T05:34:55.581Z,0
2018-01-06T05:35:55.315Z,0
2018-01-06T05:36:55.599Z,0
2018-01-06T05:37:55.289Z,0
2018-01-06T05:38:55.285Z,0
2018-01-06T05:39:55.532Z,0
2018-01-06T05:40:55.540Z,0
2018-01-06T05:41:55.265Z,0
2018-01-06T05:42:55.053Z,0
2018-01-06T05:43:55.509Z,0
2018-01-06T05:44:55.269Z,0
2018-01-06T05:45:55.499Z,0
2018-01-06T05:46:54.994Z,0
2018-01-06T05:47:55.496Z,0
2018-01-06T05:48:55.498Z,0
2018-01-06T05:49:55.493Z,0
2018-01-06T05:50:55.474Z,0
2018-01-06T05:51:55.230Z,0
2018-01-06T05:52:55.482Z,0
2018-01-06T05:53:55.472Z,0
2018-01-06T05:54:55.455Z,0
2018-01-06T05:55:54.952Z,0
2018-01-06T05:56:55.193Z,0
2018-01-06T05:57:55.443Z,0
2018-01-06T05:58:55.198Z,0
2018-01-06T05:59:55.198Z,0
2018-01-06T06:00:55.187Z,0
2018-01-06T06:01:55.189Z,0
2018-01-06T06:02:55.181Z,0
2018-01-06T06:03:54.916Z,0
2018-01-06T06:04:55.419Z,0
2018-01-06T06:05:55.146Z,0
2018-01-06T06:06:55.395Z,0
2018-01-06T06:07:55.406Z,0
2018-01-06T06:08:55.148Z,0
2018-01-06T06:09:54.902Z,0
2018-01-06T06:10:55.131Z,0
2018-01-06T06:11:54.644Z,0
2018-01-06T06:12:54.963Z,0
2018-01-06T06:13:55.129Z,0
2018-01-06T06:14:55.112Z,0
2018-01-06T06:15:55.101Z,0
2018-01-06T06:16:55.103Z,0
2018-01-06T06:17:55.103Z,0
2018-01-06T06:18:55.348Z,0
2018-01-06T06:19:55.104Z,0
2018-01-06T06:20:55.074Z,0
2018-01-06T06:21:55.074Z,0
2018-01-06T06:22:55.068Z,0
2018-01-06T06:23:55.063Z,0
2018-01-06T06:24:55.363Z,0
2018-01-06T06:25:55.059Z,0
2018-01-06T06:26:56.142Z,0
2018-01-06T06:27:55.301Z,0
2018-01-06T06:28:55.038Z,0
2018-01-06T06:29:55.280Z,0
2018-01-06T06:30:55.076Z,0
2018-01-06T06:31:55.269Z,0
2018-01-06T06:32:55.272Z,0
2018-01-06T06:33:55.269Z,0
2018-01-06T06:34:55.006Z,0
2018-01-06T06:35:55.002Z,0
2018-01-06T06:36:54.985Z,0
2018-01-06T06:37:54.978Z,0
2018-01-06T06:38:55.295Z,0
2018-01-06T06:39:55.272Z,0
2018-01-06T06:40:55.217Z,0
2018-01-06T06:41:54.982Z,0
2018-01-06T06:42:54.958Z,0
2018-01-06T06:43:55.209Z,0
2018-01-06T06:44:55.255Z,0
2018-01-06T06:45:55.294Z,0
2018-01-06T06:46:55.191Z,0
2018-01-06T06:47:54.428Z,0
2018-01-06T06:48:54.673Z,0
2018-01-06T06:49:54.913Z,0
2018-01-06T06:50:54.911Z,0
2018-01-06T06:51:55.165Z,0
2018-01-06T06:52:54.674Z,0
2018-01-06T06:53:54.663Z,0
2018-01-06T06:54:54.909Z,0
2018-01-06T06:55:55.174Z,0
2018-01-06T06:56:56.744Z,0
2018-01-06T06:57:54.891Z,0
2018-01-06T06:58:54.875Z,0
2018-01-06T06:59:54.870Z,0
2018-01-06T07:00:54.856Z,0
2018-01-06T07:01:54.857Z,0
2018-01-06T07:02:55.104Z,0
2018-01-06T07:03:54.338Z,0
2018-01-06T07:04:54.835Z,0
2018-01-06T07:05:54.854Z,0
2018-01-06T07:06:54.852Z,0
2018-01-06T07:07:55.083Z,0
2018-01-06T07:08:54.825Z,0
2018-01-06T07:09:54.810Z,0
2018-01-06T07:10:55.059Z,0
2018-01-06T07:11:54.553Z,0
2018-01-06T07:12:55.057Z,0
2018-01-06T07:13:55.089Z,0
2018-01-06T07:14:55.037Z,0
2018-01-06T07:15:55.033Z,0
2018-01-06T07:16:54.775Z,0
2018-01-06T07:17:54.803Z,0
2018-01-06T07:18:54.772Z,0
2018-01-06T07:19:54.755Z,0
2018-01-06T07:20:55.007Z,0
2018-01-06T07:21:54.748Z,0
2018-01-06T07:22:55.002Z,0
2018-01-06T07:23:54.736Z,0
2018-01-06T07:24:54.997Z,0
2018-01-06T07:25:54.990Z,5
2018-01-06T07:26:55.539Z,5
2018-01-06T07:27:54.468Z,5
2018-01-06T07:28:54.470Z,5
2018-01-06T07:29:54.963Z,5
2018-01-06T07:30:54.708Z,5
2018-01-06T07:31:54.460Z,5
2018-01-06T07:32:54.693Z,5
2018-01-06T07:33:54.946Z,5
2018-01-06T07:34:54.945Z,5
2018-01-06T07:35:54.696Z,5
2018-01-06T07:36:54.989Z,5
2018-01-06T07:37:54.679Z,5
2018-01-06T07:38:54.668Z,5
2018-01-06T07:39:54.464Z,5
2018-01-06T07:40:54.431Z,5
2018-01-06T07:41:54.901Z,5
2018-01-06T07:42:54.714Z,5
2018-01-06T07:43:54.644Z,10
2018-01-06T07:44:54.645Z,10
2018-01-06T07:45:54.404Z,10
2018-01-06T07:46:54.672Z,10
2018-01-06T07:47:54.629Z,10
2018-01-06T07:48:54.877Z,10
2018-01-06T07:49:54.106Z,10
2018-01-06T07:50:54.908Z,10
2018-01-06T07:51:54.854Z,10
2018-01-06T07:52:54.598Z,10
2018-01-06T07:53:54.382Z,10
2018-01-06T07:54:54.846Z,10
2018-01-06T07:55:54.603Z,15
2018-01-06T07:56:54.856Z,15
2018-01-06T07:57:54.827Z,15
2018-01-06T07:58:54.575Z,15
2018-01-06T07:59:54.827Z,15
2018-01-06T08:00:54.655Z,15
2018-01-06T08:01:54.555Z,15
2018-01-06T08:02:54.816Z,15
2018-01-06T08:03:54.287Z,15
2018-01-06T08:04:54.784Z,20
2018-01-06T08:05:54.784Z,20
2018-01-06T08:06:54.523Z,20
2018-01-06T08:07:54.511Z,20
2018-01-06T08:08:54.546Z,25
2018-01-06T08:09:54.524Z,25
2018-01-06T08:10:54.762Z,25
2018-01-06T08:11:54.247Z,25
2018-01-06T08:12:54.501Z,25
2018-01-06T08:13:54.260Z,25
2018-01-06T08:14:54.734Z,25
2018-01-06T08:15:54.474Z,25
2018-01-06T08:16:54.731Z,25
2018-01-06T08:17:54.727Z,20
2018-01-06T08:18:54.209Z,20
2018-01-06T08:19:54.704Z,20
2018-01-06T08:20:54.218Z,20
2018-01-06T08:21:54.776Z,20
2018-01-06T08:22:54.787Z,20
2018-01-06T08:23:54.702Z,25
2018-01-06T08:24:54.434Z,25
2018-01-06T08:25:54.731Z,25
2018-01-06T08:26:54.504Z,25
2018-01-06T08:27:54.830Z,25
2018-01-06T08:28:54.193Z,25
2018-01-06T08:29:54.408Z,25
2018-01-06T08:30:54.659Z,25
2018-01-06T08:31:54.653Z,30
2018-01-06T08:32:54.649Z,30
2018-01-06T08:33:54.158Z,35
2018-01-06T08:34:54.636Z,35
2018-01-06T08:35:54.138Z,35
2018-01-06T08:37:26.230Z,35
2018-01-06T08:37:54.622Z,35
2018-01-06T08:38:54.365Z,35
2018-01-06T08:39:54.373Z,40
2018-01-06T08:40:53.852Z,45
2018-01-06T08:41:54.107Z,45
2018-01-06T08:42:54.098Z,45
2018-01-06T08:43:54.601Z,45
2018-01-06T08:44:54.624Z,45
2018-01-06T08:45:54.341Z,40
2018-01-06T08:46:54.078Z,40
2018-01-06T08:47:54.344Z,45
2018-01-06T08:48:54.578Z,45
2018-01-06T08:49:54.320Z,45
2018-01-06T08:50:54.320Z,45
2018-01-06T08:51:54.331Z,45
2018-01-06T08:52:54.054Z,45
2018-01-06T08:53:54.323Z,45
2018-01-06T08:54:54.541Z,45
2018-01-06T08:55:54.603Z,45
2018-01-06T08:56:54.546Z,45
2018-01-06T08:57:54.293Z,45
2018-01-06T08:58:54.536Z,45
2018-01-06T08:59:54.282Z,45
2018-01-06T09:00:54.036Z,50
2018-01-06T09:01:54.528Z,55
2018-01-06T09:02:54.275Z,60
2018-01-06T09:03:54.271Z,65
2018-01-06T09:04:54.010Z,70
2018-01-06T09:05:54.016Z,70
2018-01-06T09:06:54.522Z,75
2018-01-06T09:07:54.246Z,75
2018-01-06T09:08:54.244Z,75
2018-01-06T09:09:53.998Z,70
2018-01-06T09:10:54.260Z,70
2018-01-06T09:11:54.492Z,65
2018-01-06T09:12:53.793Z,70
2018-01-06T09:13:54.225Z,65
2018-01-06T09:14:54.469Z,70
2018-01-06T09:15:54.231Z,70
2018-01-06T09:16:54.216Z,70
2018-01-06T09:17:54.458Z,80
2018-01-06T09:18:54.210Z,75
2018-01-06T09:19:54.217Z,85
2018-01-06T09:20:54.448Z,110
2018-01-06T09:21:54.206Z,100
2018-01-06T09:22:54.212Z,100
2018-01-06T09:23:53.949Z,95
2018-01-06T09:24:54.242Z,110
2018-01-06T09:25:53.935Z,130
2018-01-06T09:26:54.174Z,135
2018-01-06T09:27:55.424Z,140
2018-01-06T09:28:54.164Z,125
2018-01-06T09:29:53.908Z,145
2018-01-06T09:30:54.182Z,155
2018-01-06T09:31:54.417Z,155
2018-01-06T09:32:54.402Z,155
2018-01-06T09:33:54.159Z,160
2018-01-06T09:34:54.158Z,165
2018-01-06T09:35:54.143Z,170
2018-01-06T09:36:54.399Z,170
2018-01-06T09:37:53.884Z,170
2018-01-06T09:38:54.426Z,135
2018-01-06T09:39:54.131Z,130
2018-01-06T09:40:54.393Z,135
2018-01-06T09:41:54.398Z,160
2018-01-06T09:42:54.212Z,170
2018-01-06T09:43:54.122Z,170
2018-01-06T09:44:54.388Z,135
2018-01-06T09:45:54.117Z,130
2018-01-06T09:46:54.112Z,130
2018-01-06T09:47:54.110Z,130
2018-01-06T09:48:54.120Z,130
2018-01-06T09:49:54.102Z,135
2018-01-06T09:50:54.112Z,135
2018-01-06T09:51:53.596Z,135
2018-01-06T09:52:53.872Z,135
2018-01-06T09:53:54.103Z,135
2018-01-06T09:54:54.092Z,135
2018-01-06T09:55:54.140Z,130
2018-01-06T09:56:54.088Z,130
2018-01-06T09:57:54.127Z,135
2018-01-06T09:58:54.327Z,130
2018-01-06T09:59:54.080Z,130
2018-01-06T10:00:54.088Z,130
2018-01-06T10:01:54.076Z,125
2018-01-06T10:02:54.066Z,125
2018-01-06T10:03:54.322Z,125
2018-01-06T10:04:54.325Z,125
2018-01-06T10:05:54.066Z,130
2018-01-06T10:06:53.821Z,130
2018-01-06T10:07:54.074Z,135
2018-01-06T10:08:54.338Z,140
2018-01-06T10:09:54.316Z,140
2018-01-06T10:10:54.305Z,135
2018-01-06T10:11:54.048Z,135
2018-01-06T10:12:54.048Z,140
2018-01-06T10:13:53.796Z,155
2018-01-06T10:14:54.302Z,170
2018-01-06T10:15:54.051Z,180
2018-01-06T10:16:54.307Z,150
2018-01-06T10:17:54.334Z,170
2018-01-06T10:18:53.771Z,180
2018-01-06T10:19:54.278Z,175
2018-01-06T10:20:54.278Z,180
2018-01-06T10:21:53.773Z,170
2018-01-06T10:52:45.523Z,105
2018-01-06T10:53:45.260Z,110
2018-01-06T10:54:45.251Z,115
2018-01-06T10:55:44.993Z,120
2018-01-06T10:56:45.228Z,130
2018-01-06T10:57:45.481Z,145
2018-01-06T10:58:45.501Z,130
2018-01-06T10:59:45.213Z,130
2018-01-06T11:00:45.073Z,140
2018-01-06T11:01:44.958Z,150
2018-01-06T11:02:44.714Z,155
2018-01-06T11:03:45.460Z,170
2018-01-06T11:04:45.450Z,195
2018-01-06T11:05:45.195Z,195
2018-01-06T11:06:44.941Z,200
2018-01-06T11:07:45.506Z,205
2018-01-06T11:08:45.174Z,200
2018-01-06T11:09:45.186Z,195
2018-01-06T11:10:44.926Z,200
2018-01-06T11:11:45.173Z,200
2018-01-06T11:12:44.911Z,185
2018-01-06T11:13:45.422Z,205
2018-01-06T11:14:45.161Z,200
2018-01-06T11:15:45.419Z,195
2018-01-06T11:16:45.155Z,185
2018-01-06T11:17:45.350Z,180
2018-01-06T11:18:45.422Z,175
2018-01-06T11:19:44.904Z,180
2018-01-06T11:20:44.903Z,190
2018-01-06T11:21:45.165Z,205
2018-01-06T11:22:45.408Z,205
2018-01-06T11:23:45.408Z,205
2018-01-06T11:24:44.899Z,210
2018-01-06T11:25:44.644Z,205
2018-01-06T11:26:45.150Z,200
2018-01-06T11:27:45.410Z,215
2018-01-06T11:28:45.417Z,195
2018-01-06T11:29:44.897Z,185
2018-01-06T11:30:44.876Z,185
2018-01-06T11:31:45.447Z,190
2018-01-06T11:32:45.140Z,195
2018-01-06T11:33:45.672Z,200
2018-01-06T11:34:46.634Z,195
2018-01-06T11:35:45.121Z,185
2018-01-06T11:36:45.367Z,185
2018-01-06T11:37:45.415Z,180
2018-01-06T11:38:45.390Z,170
2018-01-06T11:39:45.130Z,165
2018-01-06T11:40:44.868Z,160
2018-01-06T11:41:45.396Z,165
2018-01-06T11:42:44.884Z,175
2018-01-06T11:43:44.876Z,170
2018-01-06T11:44:45.374Z,170
2018-01-06T11:45:44.878Z,165
2018-01-06T11:46:45.144Z,160
2018-01-06T11:47:45.372Z,155
2018-01-06T11:48:45.146Z,150
2018-01-06T11:49:45.422Z,145
2018-01-06T11:50:45.366Z,140
2018-01-06T11:51:45.105Z,140
2018-01-06T11:52:45.105Z,135
2018-01-06T11:53:45.115Z,140
2018-01-06T11:54:45.372Z,145
2018-01-06T11:55:45.453Z,145
2018-01-06T11:56:45.364Z,150
2018-01-06T11:57:45.370Z,160
2018-01-06T11:58:45.139Z,165
2018-01-06T11:59:45.370Z,165
2018-01-06T12:00:45.404Z,170
2018-01-06T12:01:45.360Z,175
2018-01-06T12:02:45.143Z,185
2018-01-06T12:03:44.854Z,180
2018-01-06T12:04:45.122Z,185
2018-01-06T12:05:45.153Z,190
2018-01-06T12:06:45.109Z,185
2018-01-06T12:07:45.396Z,185
2018-01-06T12:08:45.392Z,190
2018-01-06T12:09:45.105Z,185
2018-01-06T12:10:45.155Z,185
2018-01-06T12:11:44.864Z,185
2018-01-06T12:12:45.384Z,185
2018-01-06T12:13:45.108Z,190
2018-01-06T12:14:45.344Z,190
2018-01-06T12:15:45.104Z,180
2018-01-06T12:16:45.176Z,175
2018-01-06T12:17:45.116Z,170
2018-01-06T12:18:45.401Z,165
2018-01-06T12:19:44.862Z,165
2018-01-06T12:20:44.849Z,160
2018-01-06T12:21:45.095Z,160
2018-01-06T12:22:45.352Z,150
2018-01-06T12:23:45.349Z,150
2018-01-06T12:24:45.382Z,145
2018-01-06T12:25:45.091Z,140
2018-01-06T12:26:45.346Z,140
2018-01-06T12:27:44.892Z,140
2018-01-06T12:28:45.357Z,140
2018-01-06T12:29:45.438Z,145
2018-01-06T12:30:45.369Z,140
2018-01-06T12:31:45.090Z,140
2018-01-06T12:32:45.137Z,140
2018-01-06T12:33:45.127Z,140
2018-01-06T12:34:45.079Z,155
2018-01-06T12:35:45.094Z,140
2018-01-06T12:36:44.854Z,140
2018-01-06T12:37:45.082Z,135
2018-01-06T12:38:44.842Z,135
2018-01-06T12:39:44.862Z,130
2018-01-06T12:40:45.085Z,130
2018-01-06T12:41:44.595Z,120
2018-01-06T12:42:44.580Z,115
2018-01-06T12:43:45.341Z,110
2018-01-06T12:44:45.361Z,110
2018-01-06T12:45:45.102Z,105
2018-01-06T12:46:44.838Z,105
2018-01-06T12:47:45.076Z,100
2018-01-06T12:48:45.347Z,100
2018-01-06T12:49:44.838Z,95
2018-01-06T12:50:45.358Z,95
2018-01-06T12:51:45.099Z,95
2018-01-06T12:52:45.133Z,95
2018-01-06T12:53:44.819Z,95
2018-01-06T12:54:44.821Z,95
2018-01-06T12:55:44.830Z,95
2018-01-06T12:56:44.580Z,95
2018-01-06T12:57:44.818Z,95
2018-01-06T12:58:44.828Z,95
2018-01-06T12:59:45.106Z,95
2018-01-06T13:00:45.077Z,95
2018-01-06T13:01:45.068Z,95
2018-01-06T13:02:45.407Z,95
2018-01-06T13:03:44.566Z,95
2018-01-06T13:04:44.571Z,95
2018-01-06T13:05:44.817Z,95
2018-01-06T13:06:44.812Z,95
2018-01-06T13:07:45.067Z,100
2018-01-06T13:08:44.835Z,95
2018-01-06T13:09:44.818Z,100
2018-01-06T13:10:45.080Z,100
2018-01-06T13:11:44.933Z,100
2018-01-06T13:12:45.313Z,100
2018-01-06T13:13:44.821Z,95
2018-01-06T13:14:44.894Z,95
2018-01-06T13:15:44.869Z,90
2018-01-06T13:16:45.067Z,90
2018-01-06T13:17:44.609Z,90
2018-01-06T13:18:45.339Z,85
2018-01-06T13:19:45.168Z,85
2018-01-06T13:20:45.062Z,90
2018-01-06T13:21:45.312Z,90
2018-01-06T13:22:44.943Z,85
2018-01-06T13:23:45.058Z,85
2018-01-06T13:24:45.043Z,85
2018-01-06T13:25:45.285Z,85
2018-01-06T13:26:44.842Z,80
2018-01-06T13:27:45.126Z,80
2018-01-06T13:28:45.048Z,80
2018-01-06T13:29:45.048Z,80
2018-01-06T13:30:45.040Z,80
2018-01-06T13:31:44.781Z,75
2018-01-06T13:32:45.281Z,75
2018-01-06T13:33:45.048Z,80
2018-01-06T13:34:45.023Z,80
2018-01-06T13:35:45.051Z,80
2018-01-06T13:36:45.016Z,80
2018-01-06T13:37:45.277Z,85
2018-01-06T13:38:45.279Z,85
2018-01-06T13:39:45.058Z,80
2018-01-06T13:40:45.292Z,80
2018-01-06T13:41:45.009Z,80
2018-01-06T13:42:44.593Z,85
2018-01-06T13:43:45.304Z,85
2018-01-06T13:44:44.751Z,85
2018-01-06T13:45:45.021Z,90
2018-01-06T13:46:44.892Z,90
2018-01-06T13:47:45.273Z,85
2018-01-06T13:48:45.033Z,85
2018-01-06T13:49:45.101Z,90
2018-01-06T13:50:44.790Z,95
2018-01-06T13:51:45.350Z,90
2018-01-06T13:52:45.091Z,85
2018-01-06T13:53:45.055Z,85
2018-01-06T13:54:45.004Z,80
2018-01-06T13:55:44.747Z,80
2018-01-06T13:56:44.768Z,80
2018-01-06T13:57:44.999Z,75
2018-01-06T13:58:44.768Z,75
2018-01-06T13:59:45.243Z,80
2018-01-06T14:00:45.328Z,80
2018-01-06T14:01:44.734Z,80
2018-01-06T14:02:44.983Z,80
2018-01-06T14:03:44.756Z,80
2018-01-06T14:04:45.256Z,80
2018-01-06T14:05:45.244Z,80
2018-01-06T14:06:44.984Z,80
2018-01-06T14:07:45.237Z,85
2018-01-06T14:08:45.285Z,85
2018-01-06T14:09:45.274Z,85
2018-01-06T14:10:45.215Z,85
2018-01-06T14:11:45.014Z,80
2018-01-06T14:12:44.959Z,85
2018-01-06T14:13:45.027Z,85
2018-01-06T14:14:44.711Z,80
2018-01-06T14:15:45.222Z,80
2018-01-06T14:16:44.959Z,80
2018-01-06T14:17:45.306Z,80
2018-01-06T14:18:45.291Z,75
2018-01-06T14:19:44.428Z,75
2018-01-06T14:20:44.966Z,75
2018-01-06T14:21:44.688Z,70
2018-01-06T14:22:44.698Z,70
2018-01-06T14:23:45.178Z,70
2018-01-06T14:24:44.955Z,70
2018-01-06T14:25:44.924Z,65
2018-01-06T14:26:44.957Z,65
2018-01-06T14:27:44.937Z,65
2018-01-06T14:28:44.755Z,60
2018-01-06T14:29:44.809Z,60
2018-01-06T14:30:45.123Z,55
2018-01-06T14:31:44.978Z,55
2018-01-06T14:32:44.902Z,55
2018-01-06T14:33:44.950Z,55
2018-01-06T14:34:44.668Z,55
2018-01-06T14:35:44.661Z,50
2018-01-06T14:36:44.956Z,50
2018-01-06T14:37:45.105Z,50
2018-01-06T14:38:45.152Z,50
2018-01-06T14:39:44.944Z,50
2018-01-06T14:40:45.249Z,45
2018-01-06T14:41:44.697Z,45
2018-01-06T14:42:44.955Z,45
2018-01-06T14:43:44.415Z,40
2018-01-06T14:44:44.666Z,40
2018-01-06T14:45:44.925Z,40
2018-01-06T14:46:45.203Z,40
2018-01-06T14:47:44.642Z,40
2018-01-06T14:48:45.090Z,40
2018-01-06T14:49:45.061Z,40
2018-01-06T14:50:45.133Z,40
2018-01-06T14:51:44.616Z,40
2018-01-06T14:52:44.656Z,40
2018-01-06T14:53:44.872Z,40
2018-01-06T14:54:44.857Z,40
2018-01-06T14:55:44.614Z,40
2018-01-06T14:56:44.857Z,40